FYLZ/LUD METAR and TAF weather

Enter ICAO airport designator
Station Type Date Time Source
FYLZ METAR 2021/09/24 00:00 UTC NOAA

FYLZ 240000Z AUTO 17003KT //// // ////// 12/10 Q1015


Station Type Date Time Source
FYLZ Decoded METAR 2021/09/24 00:00 UTC NOAA

Luderitz / Diaz Point, Namibia (FYLZ) 26-41S 015-15E
Sep 23, 2021 - 08:00 PM EDT / 2021.09.24 0000 UTC
Wind: from the S (170 degrees) at 3 MPH (3 KT):0
Temperature: 53 F (12 C)
Dew Point: 50 F (10 C)
Relative Humidity: 87%
Pressure (altimeter): 29.97 in. Hg (1015 hPa)
ob: FYLZ 240000Z AUTO 17003KT //// // ////// 12/10 Q1015
cycle: 0

Station Type Date Time Source
FYLZ TAF 2014/11/15 15:19 UTC NOAA

TAF FYLZ 151400Z 1515/1524 18015G28KT CAVOK
BECMG 1518/1520 16020KT

Example: see airport list